Levittown, Pennsylvania
Current Conditions -  °F | °C
As of 10:54 AM on Wednesday 22 Oct 2014 (Local Time) from KPNE Reporting Station
Light Rain Light Rain  
Wind Chill: 56°   Ceiling: 1400
Heat Index: 56°   Visibility: 5mi
Dew Point: 50°   Wind: 21mph
Humidity: 80%   Direction: 30°NNE
Pressure: 29.91"   Gusts: 25mph
Location:  40.16°N, 74.89°W
Report Text: KPNE 221454Z 03018G22KT 5SM -RA OVC014 13/10 A2991 RMK AO2 SLP129 P0004 60007 T01330100 53008 $
Loading
Personal Weather Stations






























Interactive Weather Map
Tropical Storm Tracking
New forecast layout! Learn more

10-Day Weather Forecast

Advertisements
Track Severe Weather on mobile